createdAt,value
2023-01-11T00:00:00.494Z,15.20
2023-01-11T00:02:34.578Z,16.67
2023-01-11T00:05:01.643Z,16.88
2023-01-11T00:07:52.717Z,19.15
2023-01-11T00:10:43.904Z,14.43
2023-01-11T00:14:08.609Z,19.38
2023-01-11T00:16:41.752Z,19.02
2023-01-11T00:19:21.897Z,19.02
2023-01-11T00:21:52.784Z,16.58
2023-01-11T00:24:38.845Z,16.73
2023-01-11T00:27:24.735Z,20.02
2023-01-11T00:30:00.727Z,16.80
2023-01-11T00:33:11.165Z,16.55
2023-01-11T00:35:41.708Z,18.73
2023-01-11T00:38:08.965Z,15.18
2023-01-11T00:40:36.022Z,12.57
2023-01-11T00:43:21.717Z,15.05
2023-01-11T00:46:08.388Z,16.48
2023-01-11T00:48:44.777Z,12.98
2023-01-11T00:51:11.904Z,16.20
2023-01-11T00:53:38.927Z,14.23
2023-01-11T00:56:06.291Z,19.10
2023-01-11T00:58:33.273Z,16.65
2023-01-11T01:01:07.288Z,15.02
2023-01-11T01:03:34.598Z,16.17
2023-01-11T01:06:01.623Z,15.65
2023-01-11T01:08:28.850Z,17.25
2023-01-11T01:10:55.821Z,17.20
2023-01-11T01:13:41.316Z,20.15
2023-01-11T01:16:08.403Z,15.52
2023-01-11T01:18:35.535Z,16.08
2023-01-11T01:21:02.625Z,17.90
2023-01-11T01:23:29.651Z,14.32
2023-01-11T01:25:56.668Z,15.70
2023-01-11T01:28:25.126Z,14.52
2023-01-11T01:30:52.690Z,15.18
2023-01-11T01:33:19.805Z,12.90
2023-01-11T01:35:47.022Z,15.80
2023-01-11T01:38:14.478Z,17.67
2023-01-11T01:40:48.001Z,16.75
2023-01-11T01:43:17.778Z,16.48
2023-01-11T01:46:27.905Z,11.00
2023-01-11T01:49:42.370Z,16.15
2023-01-11T01:52:16.545Z,14.52
2023-01-11T01:55:11.692Z,12.88
2023-01-11T01:58:17.445Z,20.27
2023-01-11T02:01:28.847Z,10.00
2023-01-11T02:04:11.711Z,13.68
2023-01-11T02:06:58.222Z,12.20
2023-01-11T02:09:59.168Z,17.25
2023-01-11T02:12:31.426Z,12.75
2023-01-11T02:15:10.767Z,15.85
2023-01-11T02:17:44.744Z,16.35
2023-01-11T02:20:50.319Z,12.32
2023-01-11T02:24:04.404Z,11.73
2023-01-11T02:27:42.000Z,17.30
2023-01-11T02:30:38.481Z,17.55
2023-01-11T02:33:49.518Z,13.35
2023-01-11T02:36:53.898Z,16.02
2023-01-11T02:39:50.431Z,13.82
2023-01-11T02:43:18.815Z,12.63
2023-01-11T02:46:34.812Z,15.52
2023-01-11T02:54:25.169Z,14.68
2023-01-11T02:57:08.472Z,13.35
2023-01-11T03:00:05.565Z,18.42
2023-01-11T03:02:49.547Z,17.80
2023-01-11T03:05:27.830Z,16.40
2023-01-11T03:08:48.003Z,12.70
2023-01-11T03:12:26.585Z,16.23
2023-01-11T03:15:33.514Z,15.73
2023-01-11T03:18:38.054Z,15.00
2023-01-11T03:21:55.137Z,14.45
2023-01-11T03:24:47.748Z,14.80
2023-01-11T03:27:43.388Z,15.00
2023-01-11T03:30:41.504Z,21.98
2023-01-11T03:33:35.610Z,21.23
2023-01-11T03:36:57.251Z,15.23
2023-01-11T03:40:08.404Z,12.48
2023-01-11T03:46:46.453Z,12.68
2023-01-11T03:50:10.724Z,16.05
2023-01-11T03:53:11.166Z,11.70
2023-01-11T03:56:23.702Z,11.23
2023-01-11T04:01:49.706Z,16.45
2023-01-11T04:04:23.319Z,11.25
2023-01-11T04:06:50.598Z,15.50
2023-01-11T04:09:17.666Z,16.33
2023-01-11T04:11:45.512Z,15.55
2023-01-11T04:14:12.845Z,15.55
2023-01-11T04:16:40.132Z,14.18
2023-01-11T04:19:07.637Z,12.23
2023-01-11T04:21:34.794Z,11.45
2023-01-11T04:24:20.690Z,13.57
2023-01-11T04:27:23.847Z,13.32
2023-01-11T04:30:25.868Z,13.00
2023-01-11T04:33:08.468Z,12.40
2023-01-11T04:36:12.951Z,11.65
2023-01-11T04:39:16.689Z,13.25
2023-01-11T04:42:26.119Z,14.52
2023-01-11T04:45:39.776Z,13.75
2023-01-11T04:48:23.058Z,12.05
2023-01-11T04:50:56.330Z,14.85
2023-01-11T04:53:23.537Z,11.05
2023-01-11T04:55:50.521Z,11.48
2023-01-11T04:58:17.526Z,10.20
2023-01-11T05:00:45.616Z,12.35
2023-01-11T05:03:12.627Z,19.02
2023-01-11T05:05:39.618Z,10.25
2023-01-11T05:08:09.414Z,14.75
2023-01-11T05:10:36.510Z,13.55
2023-01-11T05:13:03.440Z,14.70
2023-01-11T05:15:30.426Z,10.48
2023-01-11T05:17:57.650Z,7.03
2023-01-11T05:20:25.153Z,10.88
2023-01-11T05:22:52.284Z,11.93
2023-01-11T05:25:19.232Z,11.75
2023-01-11T05:27:46.291Z,9.55
2023-01-11T05:30:13.680Z,9.38
2023-01-11T05:32:40.742Z,14.77
2023-01-11T05:35:11.099Z,10.35
2023-01-11T05:37:39.056Z,10.85
2023-01-11T05:40:07.552Z,15.73
2023-01-11T05:42:34.905Z,17.45
2023-01-11T05:45:21.247Z,11.52
2023-01-11T05:47:48.993Z,13.63
2023-01-11T05:50:16.675Z,15.85
2023-01-11T05:52:44.010Z,14.70
2023-01-11T05:55:11.233Z,12.10
2023-01-11T05:57:42.397Z,11.68
2023-01-11T06:00:11.934Z,12.75
2023-01-11T06:02:39.252Z,11.07
2023-01-11T06:05:08.592Z,16.05
2023-01-11T06:07:36.009Z,10.43
2023-01-11T06:10:03.626Z,12.80
2023-01-11T06:12:30.913Z,11.18
2023-01-11T06:14:58.299Z,12.38
2023-01-11T06:17:25.576Z,12.25
2023-01-11T06:19:53.027Z,9.38
2023-01-11T06:22:20.326Z,9.65
2023-01-11T06:24:58.283Z,8.95
2023-01-11T06:27:31.987Z,15.52
2023-01-11T06:30:13.521Z,10.07
2023-01-11T06:32:41.750Z,12.18
2023-01-11T06:35:23.688Z,11.02
2023-01-11T06:38:05.174Z,15.18
2023-01-11T06:41:08.069Z,16.33
2023-01-11T06:43:57.581Z,14.82
2023-01-11T06:46:39.665Z,17.20
2023-01-11T06:49:18.878Z,20.17
2023-01-11T06:51:46.884Z,22.88
2023-01-11T06:54:13.979Z,10.02
2023-01-11T06:56:41.338Z,16.05
2023-01-11T06:59:08.852Z,12.35
2023-01-11T07:01:36.075Z,12.38
2023-01-11T07:04:03.380Z,7.47
2023-01-11T07:06:34.698Z,15.88
2023-01-11T07:09:02.392Z,13.75
2023-01-11T07:11:31.758Z,17.73
2023-01-11T07:13:59.909Z,14.25
2023-01-11T07:16:30.230Z,11.48
2023-01-11T07:18:57.714Z,16.67
2023-01-11T07:21:26.923Z,13.13
2023-01-11T07:23:54.160Z,9.23
2023-01-11T07:26:21.707Z,8.70
2023-01-11T07:28:48.893Z,11.98
2023-01-11T07:31:16.058Z,12.27
2023-01-11T07:33:43.277Z,12.10
2023-01-11T07:36:10.313Z,11.68
2023-01-11T07:38:37.546Z,11.77
2023-01-11T07:41:24.689Z,12.32
2023-01-11T07:43:52.082Z,8.63
2023-01-11T07:46:19.235Z,13.48
2023-01-11T07:48:47.621Z,7.18
2023-01-11T07:51:16.741Z,15.68
2023-01-11T07:53:44.122Z,16.52
2023-01-11T07:56:11.162Z,11.68
2023-01-11T07:58:38.230Z,14.77
2023-01-11T08:01:05.838Z,11.77
2023-01-11T08:03:33.187Z,13.63
2023-01-11T08:06:00.367Z,10.90
2023-01-11T08:08:27.539Z,9.05
2023-01-11T08:11:12.979Z,12.18
2023-01-11T08:13:58.517Z,9.45
2023-01-11T08:16:27.410Z,12.43
2023-01-11T08:19:04.773Z,12.18
2023-01-11T08:21:45.269Z,10.23
2023-01-11T08:24:16.400Z,12.80
2023-01-11T08:26:44.692Z,10.07
2023-01-11T08:29:17.976Z,8.25
2023-01-11T08:31:48.868Z,9.85
2023-01-11T08:34:16.456Z,9.23
2023-01-11T08:36:43.896Z,12.70
2023-01-11T08:39:13.321Z,10.88
2023-01-11T08:41:45.671Z,10.75
2023-01-11T08:44:38.901Z,10.85
2023-01-11T08:47:09.909Z,10.73
2023-01-11T08:49:56.659Z,14.43
2023-01-11T08:52:34.519Z,8.88
2023-01-11T08:55:21.018Z,8.48
2023-01-11T08:58:08.452Z,10.25
2023-01-11T09:00:39.061Z,12.43
2023-01-11T09:03:06.799Z,9.95
2023-01-11T09:05:37.055Z,13.70
2023-01-11T09:08:05.958Z,10.85
2023-01-11T09:10:33.894Z,8.90
2023-01-11T09:13:10.788Z,8.55
2023-01-11T09:15:47.921Z,14.13
2023-01-11T09:18:36.890Z,14.07
2023-01-11T09:21:49.901Z,12.05
2023-01-11T09:24:39.086Z,14.10
2023-01-11T09:27:25.549Z,7.45
2023-01-11T09:30:03.379Z,15.35
2023-01-11T09:32:58.943Z,12.52
2023-01-11T09:36:02.669Z,14.18
2023-01-11T09:38:54.198Z,8.57
2023-01-11T09:43:13.207Z,12.70
2023-01-11T09:46:08.657Z,10.27
2023-01-11T09:49:03.417Z,10.07
2023-01-11T09:51:39.613Z,14.25
2023-01-11T09:54:10.294Z,14.65
2023-01-11T09:56:52.297Z,14.20
2023-01-11T09:59:42.602Z,11.17
2023-01-11T10:02:34.724Z,14.88
2023-01-11T10:05:55.918Z,8.48
2023-01-11T10:18:38.491Z,8.32
2023-01-11T10:19:41.323Z,10.45
2023-01-11T10:22:27.901Z,12.25
2023-01-11T10:25:11.586Z,7.75
2023-01-11T10:27:49.451Z,7.40
2023-01-11T10:30:44.650Z,5.20
2023-01-11T10:33:47.932Z,11.70
2023-01-11T10:40:25.245Z,12.75
2023-01-11T10:43:09.436Z,8.60
2023-01-11T10:45:52.893Z,7.43
2023-01-11T10:48:43.347Z,6.95
2023-01-11T10:51:44.384Z,8.07
2023-01-11T10:54:30.212Z,14.45
2023-01-11T10:57:33.654Z,9.00
2023-01-11T11:00:31.602Z,7.30
2023-01-11T11:03:22.288Z,6.68
2023-01-11T11:06:28.419Z,8.40
2023-01-11T11:09:47.864Z,9.38
2023-01-11T11:12:37.058Z,10.02
2023-01-11T11:15:25.224Z,9.98
2023-01-11T11:17:55.191Z,5.95
2023-01-11T11:20:27.166Z,8.48
2023-01-11T11:22:56.592Z,6.93
2023-01-11T11:25:37.371Z,5.78
2023-01-11T11:28:23.028Z,7.50
2023-01-11T11:30:54.621Z,9.20
2023-01-11T11:33:41.389Z,5.67
2023-01-11T11:36:14.108Z,6.55
2023-01-11T11:39:09.111Z,7.75
2023-01-11T11:41:56.969Z,7.18
2023-01-11T11:44:28.065Z,6.25
2023-01-11T11:47:14.164Z,8.98
2023-01-11T11:49:42.356Z,11.40
2023-01-11T11:52:17.870Z,8.13
2023-01-11T11:54:59.135Z,5.47
2023-01-11T11:57:37.903Z,6.07
2023-01-11T12:00:28.252Z,6.75
2023-01-11T12:03:11.564Z,6.00
2023-01-11T12:05:49.083Z,5.15
2023-01-11T12:08:18.758Z,6.28
2023-01-11T12:10:57.631Z,6.18
2023-01-11T12:13:37.950Z,8.27
2023-01-11T12:16:20.365Z,4.40
2023-01-11T12:18:48.133Z,8.57
2023-01-11T12:21:24.885Z,6.60
2023-01-11T12:24:23.773Z,5.75
2023-01-11T12:27:29.073Z,6.45
2023-01-11T12:30:59.477Z,7.85
2023-01-11T12:34:10.035Z,3.80
2023-01-11T12:37:10.726Z,7.07
2023-01-11T12:40:02.793Z,7.18
2023-01-11T12:43:04.213Z,4.17
2023-01-11T12:46:08.194Z,1.83
2023-01-11T12:49:24.921Z,3.28
2023-01-11T12:52:22.970Z,10.43
2023-01-11T12:55:20.599Z,3.78
2023-01-11T12:58:14.360Z,5.05
2023-01-11T13:01:09.710Z,4.20
2023-01-11T13:04:06.891Z,3.97
2023-01-11T13:06:56.962Z,5.32
2023-01-11T13:10:02.929Z,6.78
2023-01-11T13:12:49.617Z,4.78
2023-01-11T13:15:48.870Z,7.18
2023-01-11T13:18:48.569Z,7.38
2023-01-11T13:21:28.499Z,6.28
2023-01-11T13:24:02.226Z,7.53
2023-01-11T13:26:37.341Z,5.78
2023-01-11T13:29:18.185Z,13.00
2023-01-11T13:31:48.857Z,5.72
2023-01-11T13:34:58.125Z,7.50
2023-01-11T13:38:11.483Z,6.55
2023-01-11T13:40:58.314Z,6.47
2023-01-11T13:43:45.948Z,11.55
2023-01-11T13:46:42.101Z,6.68
2023-01-11T13:49:50.092Z,10.10
2023-01-11T13:52:47.634Z,17.00
2023-01-11T13:55:30.266Z,3.42
2023-01-11T14:00:43.991Z,2.13
2023-01-11T14:03:36.790Z,2.15
2023-01-11T14:09:27.460Z,2.15
2023-01-11T14:12:40.442Z,2.63
2023-01-11T14:15:48.719Z,2.97
2023-01-11T14:18:28.657Z,4.57
2023-01-11T14:21:41.844Z,2.35
2023-01-11T14:27:06.849Z,3.38
2023-01-11T14:30:08.081Z,3.95
2023-01-11T14:33:25.360Z,5.20
2023-01-11T14:36:27.877Z,3.60
2023-01-11T14:39:09.553Z,4.78
2023-01-11T14:41:57.526Z,5.65
2023-01-11T14:45:01.841Z,5.07
2023-01-11T14:48:08.039Z,3.95
2023-01-11T14:51:13.805Z,3.40
2023-01-11T14:53:52.166Z,2.45
2023-01-11T14:56:51.315Z,2.28
2023-01-11T14:59:37.419Z,4.28
2023-01-11T15:02:04.761Z,3.60
2023-01-11T15:04:35.381Z,2.35
2023-01-11T15:07:30.159Z,3.17
2023-01-11T15:10:00.353Z,2.90
2023-01-11T15:12:40.329Z,2.80
2023-01-11T15:15:18.807Z,1.73
2023-01-11T15:18:12.382Z,4.60
2023-01-11T15:21:02.948Z,3.00
2023-01-11T15:23:45.845Z,1.60
2023-01-11T15:26:17.704Z,2.63
2023-01-11T15:28:52.990Z,3.42
2023-01-11T15:31:51.097Z,1.88
2023-01-11T15:34:42.488Z,4.55
2023-01-11T15:37:45.760Z,1.88
2023-01-11T15:40:39.461Z,1.42
2023-01-11T15:43:32.292Z,2.80
2023-01-11T15:46:46.293Z,1.60
2023-01-11T15:50:06.135Z,2.75
2023-01-11T15:53:37.240Z,2.33
2023-01-11T15:56:40.025Z,3.20
2023-01-11T15:59:37.264Z,6.80
2023-01-11T16:02:13.374Z,6.78
2023-01-11T16:05:15.709Z,6.30
2023-01-11T16:08:10.398Z,5.53
2023-01-11T16:11:20.456Z,5.47
2023-01-11T16:14:08.125Z,7.53
2023-01-11T16:16:43.618Z,6.47
2023-01-11T16:19:23.454Z,9.10
2023-01-11T16:22:01.790Z,6.15
2023-01-11T16:24:38.851Z,3.65
2023-01-11T16:27:07.340Z,3.15
2023-01-11T16:30:09.523Z,3.78
2023-01-11T16:35:03.579Z,4.82
2023-01-11T16:37:43.843Z,3.33
2023-01-11T16:40:14.160Z,4.00
2023-01-11T16:42:56.412Z,2.45
2023-01-11T16:48:10.030Z,3.92
2023-01-11T16:50:37.385Z,3.72
2023-01-11T16:53:22.414Z,2.92
2023-01-11T16:56:16.122Z,1.67
2023-01-11T16:58:43.499Z,3.10
2023-01-11T17:01:15.192Z,2.53
2023-01-11T17:03:55.293Z,2.20
2023-01-11T17:06:25.396Z,1.67
2023-01-11T17:09:30.916Z,2.90
2023-01-11T17:11:58.390Z,5.57
2023-01-11T17:15:18.860Z,3.28
2023-01-11T17:17:46.665Z,2.88
2023-01-11T17:20:57.687Z,1.58
2023-01-11T17:23:27.734Z,1.92
2023-01-11T17:25:57.374Z,1.27
2023-01-11T17:28:26.005Z,2.75
2023-01-11T17:30:54.431Z,2.03
2023-01-11T17:33:32.776Z,1.83
2023-01-11T17:36:01.550Z,3.63
2023-01-11T17:38:30.120Z,3.45
2023-01-11T17:42:03.187Z,3.47
2023-01-11T17:45:44.023Z,1.83
2023-01-11T17:49:01.080Z,4.60
2023-01-11T17:51:39.727Z,2.85
2023-01-11T17:54:22.672Z,2.03
2023-01-11T17:57:00.941Z,2.55
2023-01-11T17:59:32.952Z,2.60
2023-01-11T18:02:15.962Z,2.95
2023-01-11T18:05:03.902Z,2.75
2023-01-11T18:07:31.161Z,2.25
2023-01-11T18:10:02.152Z,2.70
2023-01-11T18:12:36.324Z,4.75
2023-01-11T18:15:08.807Z,4.25
2023-01-11T18:17:41.026Z,3.05
2023-01-11T18:20:37.706Z,3.60
2023-01-11T18:23:22.676Z,5.03
2023-01-11T18:25:49.791Z,3.63
2023-01-11T18:28:36.514Z,3.10
2023-01-11T18:31:09.303Z,2.97
2023-01-11T18:33:44.188Z,4.18
2023-01-11T18:36:25.893Z,3.08
2023-01-11T18:38:54.474Z,3.83
2023-01-11T18:41:48.302Z,4.90
2023-01-11T18:44:15.525Z,3.50
2023-01-11T18:46:45.078Z,4.80
2023-01-11T18:50:06.364Z,2.53
2023-01-11T18:52:34.698Z,3.10
2023-01-11T18:55:11.382Z,6.40
2023-01-11T18:57:51.677Z,4.15
2023-01-11T19:00:25.053Z,6.75
2023-01-11T19:02:55.499Z,4.38
2023-01-11T19:06:00.943Z,5.38
2023-01-11T19:08:54.002Z,3.00
2023-01-11T19:12:16.035Z,3.40
2023-01-11T19:14:46.110Z,5.78
2023-01-11T19:17:14.083Z,3.78
2023-01-11T19:19:53.655Z,5.75
2023-01-11T19:27:16.345Z,4.90
2023-01-11T19:29:54.373Z,3.17
2023-01-11T19:32:25.136Z,5.55
2023-01-11T19:34:53.462Z,5.22
2023-01-11T19:37:23.215Z,4.20
2023-01-11T19:39:53.494Z,2.05
2023-01-11T19:42:23.919Z,6.43
2023-01-11T19:44:51.584Z,3.50
2023-01-11T19:47:19.070Z,4.85
2023-01-11T19:50:42.334Z,3.30
2023-01-11T19:53:43.664Z,4.00
2023-01-11T20:01:05.667Z,4.68
2023-01-11T20:04:48.117Z,7.85
2023-01-11T20:12:05.675Z,7.78
2023-01-11T20:14:37.306Z,8.85
2023-01-11T20:17:32.134Z,10.60
2023-01-11T20:20:15.621Z,12.05
2023-01-11T20:23:08.284Z,7.80
2023-01-11T20:25:41.266Z,7.03
2023-01-11T20:28:16.466Z,7.63
2023-01-11T20:30:44.057Z,9.02
2023-01-11T20:33:11.333Z,8.20
2023-01-11T20:35:38.659Z,10.23
2023-01-11T20:38:05.677Z,8.40
2023-01-11T20:40:32.916Z,7.10
2023-01-11T20:43:00.112Z,7.95
2023-01-11T20:45:29.186Z,8.40
2023-01-11T20:47:56.343Z,6.68
2023-01-11T20:50:23.643Z,6.70
2023-01-11T20:52:51.070Z,7.95
2023-01-11T20:55:19.059Z,8.70
2023-01-11T20:57:47.900Z,7.38
2023-01-11T21:00:15.776Z,8.18
2023-01-11T21:02:42.905Z,6.80
2023-01-11T21:05:11.106Z,14.05
2023-01-11T21:07:39.220Z,11.95
2023-01-11T21:10:07.341Z,7.47
2023-01-11T21:15:04.758Z,6.80
2023-01-11T21:17:32.043Z,7.57
2023-01-11T21:20:02.233Z,4.45
2023-01-11T21:22:29.318Z,6.78
2023-01-11T21:24:59.532Z,7.38
2023-01-11T21:28:33.143Z,8.63
2023-01-11T21:30:42.866Z,3.28
2023-01-11T21:33:10.225Z,6.97
2023-01-11T21:35:37.445Z,7.05
2023-01-11T21:38:07.044Z,7.13
2023-01-11T21:40:34.952Z,8.80
2023-01-11T21:43:02.162Z,7.35
2023-01-11T21:45:31.711Z,8.32
2023-01-11T21:47:58.923Z,11.85
2023-01-11T21:50:26.208Z,9.63
2023-01-11T21:52:57.100Z,9.55
2023-01-11T21:55:24.496Z,13.88
2023-01-11T21:57:51.668Z,10.95
2023-01-11T22:00:19.899Z,10.10
2023-01-11T22:02:50.419Z,7.30
2023-01-11T22:05:17.670Z,12.85
2023-01-11T22:07:44.808Z,9.70
2023-01-11T22:10:12.423Z,12.05
2023-01-11T22:12:39.456Z,9.82
2023-01-11T22:15:08.355Z,7.80
2023-01-11T22:17:35.610Z,15.43
2023-01-11T22:20:03.719Z,10.45
2023-01-11T22:22:38.716Z,8.30
2023-01-11T22:25:06.724Z,8.77
2023-01-11T22:27:33.948Z,10.98
2023-01-11T22:32:34.355Z,11.95
2023-01-11T22:35:01.558Z,8.32
2023-01-11T22:37:29.559Z,8.10
2023-01-11T22:39:59.523Z,6.10
2023-01-11T22:42:27.833Z,10.48
2023-01-11T22:44:55.271Z,9.98
2023-01-11T22:47:22.618Z,11.55
2023-01-11T22:54:58.351Z,7.97
2023-01-11T23:42:08.853Z,8.57
2023-01-11T23:44:36.141Z,9.45
2023-01-11T23:47:21.509Z,10.20
2023-01-11T23:49:51.128Z,9.82
2023-01-11T23:52:20.527Z,6.13
2023-01-11T23:54:48.262Z,11.30
2023-01-11T23:57:17.419Z,15.55
